City of Colorado Springs Municipal Airport
KCOS : now visible

Airfield :











YOU CAN JOIN US ON...

 
LOGIN :

Register | Disclaimer

   EN    FR    IT 

 









Legend :    VFR   Marginal VFR   IFR   Intensive IFR   Very Intensive IFR
Visi :
Ceiling :
>= 8 km
>= 3000ft
5 to 8 km
1000 to 3000 ft
1500m to 5 km
500 to 1000 ft
800 to 1500m
200 to 500 ft
< 800m
< 200 ft
Symbols :   Thunderstorms  Fog  Heavy snow  Heavy precipitations  Wind > 20 kt






- Airport Elevation : 6187 ft
- IATA code : COS


KCOS - City of Colorado Springs Municipal

CURRENT METAR :
  • 130454Z 10006KT 10SM CLR 23/03 A3020 RMK AO2 SLP134 T02330028

EXPIRED METARs :
  • 130354Z 31004KT 10SM FEW100 23/02 A3018 RMK AO2 SLP129 T02280022
  • 130254Z 10007KT 10SM FEW100 FEW150 26/02 A3015 RMK AO2 SLP112 T02560017 53013

TAF KCOS
Valid from the 13 at 00:00 until the 14 at 00:00 UTC


122323Z 1300/1324 16010KT P6SM FEW100 BKN150
FM130200 03008KT P6SM FEW150
FM130600 35006KT P6SM SKC
FM131500 31007KT P6SM SKC
FM131800 16012KT P6SM SCT130
KZDV FIR / North America



MET'MAP, your aeronautical weather chart ! - Copyright ORBIFLY December 2007 - Disclaimer

ORBIFLY MET'MAP TEAM :

Programming & Development : Alexandra Zaïnal
Concept & original design : Baudouin d'Aumeries
Assistance for programming : Marc-Olivier Méhu
Technical & hardware support : Manuel Goepfert

Contact : metmap@orbifly.com




SOURCES & CREDITS :

   NOAA       Earth
Advisory